sensor_id;sensor_type;location;lat;lon;timestamp;P1;durP1;ratioP1;P2;durP2;ratioP2
15077;SDS011;7638;49.760;8.646;2022-08-21T00:00:29;4.47;;;3.97;;
15077;SDS011;7638;49.760;8.646;2022-08-21T00:02:57;7.23;;;3.80;;
15077;SDS011;7638;49.760;8.646;2022-08-21T00:05:24;4.97;;;3.00;;
15077;SDS011;7638;49.760;8.646;2022-08-21T00:07:50;3.70;;;2.73;;
15077;SDS011;7638;49.760;8.646;2022-08-21T00:10:17;5.30;;;2.83;;
15077;SDS011;7638;49.760;8.646;2022-08-21T00:12:44;4.97;;;3.23;;
15077;SDS011;7638;49.760;8.646;2022-08-21T00:15:11;4.47;;;3.13;;
15077;SDS011;7638;49.760;8.646;2022-08-21T00:17:38;3.93;;;2.90;;
15077;SDS011;7638;49.760;8.646;2022-08-21T00:20:05;8.17;;;3.27;;
15077;SDS011;7638;49.760;8.646;2022-08-21T00:22:31;4.57;;;3.13;;
15077;SDS011;7638;49.760;8.646;2022-08-21T00:24:57;4.60;;;3.10;;
15077;SDS011;7638;49.760;8.646;2022-08-21T00:27:23;7.03;;;3.67;;
15077;SDS011;7638;49.760;8.646;2022-08-21T00:29:49;4.27;;;3.00;;
15077;SDS011;7638;49.760;8.646;2022-08-21T00:32:20;5.70;;;3.47;;
15077;SDS011;7638;49.760;8.646;2022-08-21T00:34:46;3.73;;;3.10;;
15077;SDS011;7638;49.760;8.646;2022-08-21T00:37:12;4.90;;;3.20;;
15077;SDS011;7638;49.760;8.646;2022-08-21T00:39:38;6.00;;;2.87;;
15077;SDS011;7638;49.760;8.646;2022-08-21T00:42:04;5.70;;;3.53;;
15077;SDS011;7638;49.760;8.646;2022-08-21T00:44:30;4.07;;;3.27;;
15077;SDS011;7638;49.760;8.646;2022-08-21T00:46:56;6.80;;;3.00;;
15077;SDS011;7638;49.760;8.646;2022-08-21T00:49:22;7.87;;;3.63;;
15077;SDS011;7638;49.760;8.646;2022-08-21T00:51:52;6.70;;;3.23;;
15077;SDS011;7638;49.760;8.646;2022-08-21T00:54:19;7.73;;;3.90;;
15077;SDS011;7638;49.760;8.646;2022-08-21T00:56:48;7.23;;;3.60;;
15077;SDS011;7638;49.760;8.646;2022-08-21T00:59:16;5.70;;;3.00;;
15077;SDS011;7638;49.760;8.646;2022-08-21T01:01:42;5.77;;;3.20;;
15077;SDS011;7638;49.760;8.646;2022-08-21T01:04:08;6.07;;;3.30;;
15077;SDS011;7638;49.760;8.646;2022-08-21T01:06:34;4.47;;;3.50;;
15077;SDS011;7638;49.760;8.646;2022-08-21T01:09:00;8.27;;;3.70;;
15077;SDS011;7638;49.760;8.646;2022-08-21T01:11:26;5.10;;;3.33;;
15077;SDS011;7638;49.760;8.646;2022-08-21T01:13:52;4.10;;;3.30;;
15077;SDS011;7638;49.760;8.646;2022-08-21T01:16:20;6.37;;;3.20;;
15077;SDS011;7638;49.760;8.646;2022-08-21T01:18:47;7.93;;;3.67;;
15077;SDS011;7638;49.760;8.646;2022-08-21T01:21:16;5.93;;;3.30;;
15077;SDS011;7638;49.760;8.646;2022-08-21T01:23:44;4.50;;;3.50;;
15077;SDS011;7638;49.760;8.646;2022-08-21T01:26:11;6.23;;;4.50;;
15077;SDS011;7638;49.760;8.646;2022-08-21T01:28:40;9.70;;;4.23;;
15077;SDS011;7638;49.760;8.646;2022-08-21T01:31:08;5.77;;;3.40;;
15077;SDS011;7638;49.760;8.646;2022-08-21T01:33:36;5.50;;;3.90;;
15077;SDS011;7638;49.760;8.646;2022-08-21T01:36:02;4.73;;;3.47;;
15077;SDS011;7638;49.760;8.646;2022-08-21T01:38:28;5.73;;;4.20;;
15077;SDS011;7638;49.760;8.646;2022-08-21T01:40:54;6.37;;;3.77;;
15077;SDS011;7638;49.760;8.646;2022-08-21T01:43:20;3.77;;;3.37;;
15077;SDS011;7638;49.760;8.646;2022-08-21T01:45:46;4.23;;;3.27;;
15077;SDS011;7638;49.760;8.646;2022-08-21T01:48:12;6.13;;;3.50;;
15077;SDS011;7638;49.760;8.646;2022-08-21T01:50:38;5.17;;;2.90;;
15077;SDS011;7638;49.760;8.646;2022-08-21T01:53:04;7.07;;;4.00;;
15077;SDS011;7638;49.760;8.646;2022-08-21T01:55:30;4.70;;;3.07;;
15077;SDS011;7638;49.760;8.646;2022-08-21T01:57:57;4.57;;;3.30;;
15077;SDS011;7638;49.760;8.646;2022-08-21T02:00:23;5.57;;;3.57;;
15077;SDS011;7638;49.760;8.646;2022-08-21T02:02:49;7.90;;;3.40;;
15077;SDS011;7638;49.760;8.646;2022-08-21T02:05:15;6.23;;;3.57;;
15077;SDS011;7638;49.760;8.646;2022-08-21T02:07:43;6.10;;;3.30;;
15077;SDS011;7638;49.760;8.646;2022-08-21T02:10:10;6.00;;;3.20;;
15077;SDS011;7638;49.760;8.646;2022-08-21T02:12:37;9.17;;;3.93;;
15077;SDS011;7638;49.760;8.646;2022-08-21T02:15:03;6.57;;;3.80;;
15077;SDS011;7638;49.760;8.646;2022-08-21T02:17:37;5.03;;;3.77;;
15077;SDS011;7638;49.760;8.646;2022-08-21T02:20:03;3.87;;;2.97;;
15077;SDS011;7638;49.760;8.646;2022-08-21T02:22:29;5.00;;;3.63;;
15077;SDS011;7638;49.760;8.646;2022-08-21T02:24:55;5.23;;;3.43;;
15077;SDS011;7638;49.760;8.646;2022-08-21T02:27:22;5.60;;;3.77;;
15077;SDS011;7638;49.760;8.646;2022-08-21T02:29:48;6.03;;;3.73;;
15077;SDS011;7638;49.760;8.646;2022-08-21T02:32:14;6.87;;;3.57;;
15077;SDS011;7638;49.760;8.646;2022-08-21T02:34:40;6.33;;;3.03;;
15077;SDS011;7638;49.760;8.646;2022-08-21T02:37:06;4.67;;;4.07;;
15077;SDS011;7638;49.760;8.646;2022-08-21T02:39:32;5.97;;;3.93;;
15077;SDS011;7638;49.760;8.646;2022-08-21T02:41:58;7.73;;;4.10;;
15077;SDS011;7638;49.760;8.646;2022-08-21T02:44:25;4.37;;;3.70;;
15077;SDS011;7638;49.760;8.646;2022-08-21T02:46:51;5.10;;;3.93;;
15077;SDS011;7638;49.760;8.646;2022-08-21T02:49:17;3.87;;;3.00;;
15077;SDS011;7638;49.760;8.646;2022-08-21T02:51:43;6.33;;;3.30;;
15077;SDS011;7638;49.760;8.646;2022-08-21T02:54:09;7.17;;;3.70;;
15077;SDS011;7638;49.760;8.646;2022-08-21T02:56:35;4.20;;;3.20;;
15077;SDS011;7638;49.760;8.646;2022-08-21T02:59:01;6.50;;;3.40;;
15077;SDS011;7638;49.760;8.646;2022-08-21T03:01:27;6.87;;;2.83;;
15077;SDS011;7638;49.760;8.646;2022-08-21T03:03:53;6.67;;;3.17;;
15077;SDS011;7638;49.760;8.646;2022-08-21T03:06:21;5.57;;;2.50;;
15077;SDS011;7638;49.760;8.646;2022-08-21T03:08:47;6.60;;;3.23;;
15077;SDS011;7638;49.760;8.646;2022-08-21T03:11:14;6.90;;;3.20;;
15077;SDS011;7638;49.760;8.646;2022-08-21T03:13:40;8.30;;;3.50;;
15077;SDS011;7638;49.760;8.646;2022-08-21T03:16:06;6.77;;;3.10;;
15077;SDS011;7638;49.760;8.646;2022-08-21T03:18:33;5.43;;;3.60;;
15077;SDS011;7638;49.760;8.646;2022-08-21T03:20:59;8.90;;;3.40;;
15077;SDS011;7638;49.760;8.646;2022-08-21T03:23:25;4.67;;;2.60;;
15077;SDS011;7638;49.760;8.646;2022-08-21T03:25:51;6.10;;;3.20;;
15077;SDS011;7638;49.760;8.646;2022-08-21T03:28:18;8.70;;;2.80;;
15077;SDS011;7638;49.760;8.646;2022-08-21T03:30:45;10.40;;;3.10;;
15077;SDS011;7638;49.760;8.646;2022-08-21T03:33:11;4.80;;;2.60;;
15077;SDS011;7638;49.760;8.646;2022-08-21T03:35:38;6.10;;;3.23;;
15077;SDS011;7638;49.760;8.646;2022-08-21T03:38:04;3.27;;;2.63;;
15077;SDS011;7638;49.760;8.646;2022-08-21T03:40:30;4.93;;;3.00;;
15077;SDS011;7638;49.760;8.646;2022-08-21T03:42:56;6.30;;;3.23;;
15077;SDS011;7638;49.760;8.646;2022-08-21T03:45:24;6.97;;;2.87;;
15077;SDS011;7638;49.760;8.646;2022-08-21T03:47:51;11.83;;;3.70;;
15077;SDS011;7638;49.760;8.646;2022-08-21T03:50:17;4.97;;;2.80;;
15077;SDS011;7638;49.760;8.646;2022-08-21T03:52:43;4.03;;;2.77;;
15077;SDS011;7638;49.760;8.646;2022-08-21T03:55:10;5.33;;;2.93;;
15077;SDS011;7638;49.760;8.646;2022-08-21T03:57:36;8.50;;;2.83;;
15077;SDS011;7638;49.760;8.646;2022-08-21T04:00:02;5.20;;;2.97;;
15077;SDS011;7638;49.760;8.646;2022-08-21T04:02:29;4.60;;;2.80;;
15077;SDS011;7638;49.760;8.646;2022-08-21T04:04:55;6.60;;;2.90;;
15077;SDS011;7638;49.760;8.646;2022-08-21T04:07:21;6.87;;;3.50;;
15077;SDS011;7638;49.760;8.646;2022-08-21T04:09:47;4.33;;;3.43;;
15077;SDS011;7638;49.760;8.646;2022-08-21T04:12:13;6.23;;;3.63;;
15077;SDS011;7638;49.760;8.646;2022-08-21T04:14:39;8.47;;;3.13;;
15077;SDS011;7638;49.760;8.646;2022-08-21T04:17:05;7.53;;;3.30;;
15077;SDS011;7638;49.760;8.646;2022-08-21T04:19:31;4.17;;;3.27;;
15077;SDS011;7638;49.760;8.646;2022-08-21T04:21:57;6.67;;;4.60;;
15077;SDS011;7638;49.760;8.646;2022-08-21T04:24:23;6.20;;;3.37;;
15077;SDS011;7638;49.760;8.646;2022-08-21T04:26:49;5.00;;;3.83;;
15077;SDS011;7638;49.760;8.646;2022-08-21T04:29:15;5.03;;;3.30;;
15077;SDS011;7638;49.760;8.646;2022-08-21T04:31:41;6.10;;;3.00;;
15077;SDS011;7638;49.760;8.646;2022-08-21T04:34:08;6.43;;;3.10;;
15077;SDS011;7638;49.760;8.646;2022-08-21T04:36:34;4.60;;;2.77;;
15077;SDS011;7638;49.760;8.646;2022-08-21T04:39:01;5.40;;;3.03;;
15077;SDS011;7638;49.760;8.646;2022-08-21T04:41:27;5.00;;;3.53;;
15077;SDS011;7638;49.760;8.646;2022-08-21T04:43:54;5.37;;;2.97;;
15077;SDS011;7638;49.760;8.646;2022-08-21T04:46:20;6.33;;;2.60;;
15077;SDS011;7638;49.760;8.646;2022-08-21T04:48:46;6.67;;;2.63;;
15077;SDS011;7638;49.760;8.646;2022-08-21T04:51:17;4.07;;;2.93;;
15077;SDS011;7638;49.760;8.646;2022-08-21T04:56:15;4.43;;;2.70;;
15077;SDS011;7638;49.760;8.646;2022-08-21T04:58:44;6.53;;;2.70;;
15077;SDS011;7638;49.760;8.646;2022-08-21T05:01:13;2.67;;;2.43;;
15077;SDS011;7638;49.760;8.646;2022-08-21T05:03:39;4.10;;;2.60;;
15077;SDS011;7638;49.760;8.646;2022-08-21T05:06:07;4.03;;;2.43;;
15077;SDS011;7638;49.760;8.646;2022-08-21T05:08:33;4.90;;;2.60;;
15077;SDS011;7638;49.760;8.646;2022-08-21T05:10:59;7.90;;;2.83;;
15077;SDS011;7638;49.760;8.646;2022-08-21T05:13:25;5.43;;;2.60;;
15077;SDS011;7638;49.760;8.646;2022-08-21T05:15:51;10.17;;;3.70;;
15077;SDS011;7638;49.760;8.646;2022-08-21T05:18:18;4.37;;;2.40;;
15077;SDS011;7638;49.760;8.646;2022-08-21T05:20:44;7.43;;;3.00;;
15077;SDS011;7638;49.760;8.646;2022-08-21T05:23:11;4.40;;;2.77;;
15077;SDS011;7638;49.760;8.646;2022-08-21T05:25:37;4.83;;;3.90;;
15077;SDS011;7638;49.760;8.646;2022-08-21T05:28:04;5.57;;;3.00;;
15077;SDS011;7638;49.760;8.646;2022-08-21T05:30:31;7.17;;;3.13;;
15077;SDS011;7638;49.760;8.646;2022-08-21T05:32:58;4.40;;;2.70;;
15077;SDS011;7638;49.760;8.646;2022-08-21T05:35:24;5.40;;;3.10;;
15077;SDS011;7638;49.760;8.646;2022-08-21T05:37:50;4.83;;;3.00;;
15077;SDS011;7638;49.760;8.646;2022-08-21T05:40:16;5.03;;;2.73;;
15077;SDS011;7638;49.760;8.646;2022-08-21T05:42:43;3.37;;;2.60;;
15077;SDS011;7638;49.760;8.646;2022-08-21T05:45:09;4.83;;;2.77;;
15077;SDS011;7638;49.760;8.646;2022-08-21T05:47:35;7.03;;;3.17;;
15077;SDS011;7638;49.760;8.646;2022-08-21T05:50:02;5.10;;;3.00;;
15077;SDS011;7638;49.760;8.646;2022-08-21T05:52:28;7.37;;;2.90;;
15077;SDS011;7638;49.760;8.646;2022-08-21T05:54:54;5.13;;;2.40;;
15077;SDS011;7638;49.760;8.646;2022-08-21T05:57:20;5.47;;;2.43;;
15077;SDS011;7638;49.760;8.646;2022-08-21T05:59:46;7.90;;;2.77;;
15077;SDS011;7638;49.760;8.646;2022-08-21T06:02:12;4.57;;;2.77;;
15077;SDS011;7638;49.760;8.646;2022-08-21T06:04:39;4.10;;;2.90;;
15077;SDS011;7638;49.760;8.646;2022-08-21T06:07:05;4.87;;;2.23;;
15077;SDS011;7638;49.760;8.646;2022-08-21T06:09:32;6.40;;;2.77;;
15077;SDS011;7638;49.760;8.646;2022-08-21T06:11:58;10.97;;;3.50;;
15077;SDS011;7638;49.760;8.646;2022-08-21T06:14:24;15.10;;;3.73;;
15077;SDS011;7638;49.760;8.646;2022-08-21T06:16:50;7.10;;;3.20;;
15077;SDS011;7638;49.760;8.646;2022-08-21T06:19:16;4.90;;;2.90;;
15077;SDS011;7638;49.760;8.646;2022-08-21T06:21:42;5.90;;;2.97;;
15077;SDS011;7638;49.760;8.646;2022-08-21T06:24:08;5.60;;;2.30;;
15077;SDS011;7638;49.760;8.646;2022-08-21T06:26:34;5.63;;;2.90;;
15077;SDS011;7638;49.760;8.646;2022-08-21T06:29:00;5.33;;;2.73;;
15077;SDS011;7638;49.760;8.646;2022-08-21T06:31:26;4.47;;;3.00;;
15077;SDS011;7638;49.760;8.646;2022-08-21T06:33:52;11.20;;;3.13;;
15077;SDS011;7638;49.760;8.646;2022-08-21T06:36:19;7.73;;;3.10;;
15077;SDS011;7638;49.760;8.646;2022-08-21T06:38:46;4.50;;;2.90;;
15077;SDS011;7638;49.760;8.646;2022-08-21T06:41:12;5.93;;;3.33;;
15077;SDS011;7638;49.760;8.646;2022-08-21T06:43:38;6.07;;;2.60;;
15077;SDS011;7638;49.760;8.646;2022-08-21T06:46:04;6.03;;;3.93;;
15077;SDS011;7638;49.760;8.646;2022-08-21T06:48:30;3.73;;;2.97;;
15077;SDS011;7638;49.760;8.646;2022-08-21T06:50:58;6.40;;;3.63;;
15077;SDS011;7638;49.760;8.646;2022-08-21T06:53:25;6.83;;;3.23;;
15077;SDS011;7638;49.760;8.646;2022-08-21T06:55:51;6.07;;;3.13;;
15077;SDS011;7638;49.760;8.646;2022-08-21T06:58:17;5.63;;;3.47;;
15077;SDS011;7638;49.760;8.646;2022-08-21T07:00:45;9.10;;;3.00;;
15077;SDS011;7638;49.760;8.646;2022-08-21T07:03:45;6.30;;;3.60;;
15077;SDS011;7638;49.760;8.646;2022-08-21T07:06:04;6.73;;;3.20;;
15077;SDS011;7638;49.760;8.646;2022-08-21T07:08:31;7.03;;;3.20;;
15077;SDS011;7638;49.760;8.646;2022-08-21T07:10:58;5.03;;;3.03;;
15077;SDS011;7638;49.760;8.646;2022-08-21T07:13:24;5.60;;;3.30;;
15077;SDS011;7638;49.760;8.646;2022-08-21T07:15:51;7.93;;;2.70;;
15077;SDS011;7638;49.760;8.646;2022-08-21T07:18:17;6.03;;;2.97;;
15077;SDS011;7638;49.760;8.646;2022-08-21T07:20:43;4.67;;;2.83;;
15077;SDS011;7638;49.760;8.646;2022-08-21T07:23:12;5.87;;;3.00;;
15077;SDS011;7638;49.760;8.646;2022-08-21T07:25:41;6.93;;;2.93;;
15077;SDS011;7638;49.760;8.646;2022-08-21T07:28:07;6.87;;;3.90;;
15077;SDS011;7638;49.760;8.646;2022-08-21T07:30:33;7.93;;;3.77;;
15077;SDS011;7638;49.760;8.646;2022-08-21T07:32:59;5.27;;;3.27;;
15077;SDS011;7638;49.760;8.646;2022-08-21T07:35:25;6.30;;;3.63;;
15077;SDS011;7638;49.760;8.646;2022-08-21T07:37:55;6.07;;;3.30;;
15077;SDS011;7638;49.760;8.646;2022-08-21T07:40:22;6.93;;;3.27;;
15077;SDS011;7638;49.760;8.646;2022-08-21T07:42:48;3.70;;;2.80;;
15077;SDS011;7638;49.760;8.646;2022-08-21T07:45:16;8.37;;;3.97;;
15077;SDS011;7638;49.760;8.646;2022-08-21T07:47:43;6.77;;;3.93;;
15077;SDS011;7638;49.760;8.646;2022-08-21T07:50:10;3.63;;;2.63;;
15077;SDS011;7638;49.760;8.646;2022-08-21T07:52:36;4.97;;;2.63;;
15077;SDS011;7638;49.760;8.646;2022-08-21T07:55:02;8.40;;;4.07;;
15077;SDS011;7638;49.760;8.646;2022-08-21T07:57:28;5.90;;;3.13;;
15077;SDS011;7638;49.760;8.646;2022-08-21T07:59:54;6.67;;;3.00;;
15077;SDS011;7638;49.760;8.646;2022-08-21T08:02:21;5.27;;;3.40;;
15077;SDS011;7638;49.760;8.646;2022-08-21T08:04:48;4.47;;;2.90;;
15077;SDS011;7638;49.760;8.646;2022-08-21T08:07:14;5.73;;;3.40;;
15077;SDS011;7638;49.760;8.646;2022-08-21T08:09:40;6.60;;;3.20;;
15077;SDS011;7638;49.760;8.646;2022-08-21T08:12:06;8.77;;;3.70;;
15077;SDS011;7638;49.760;8.646;2022-08-21T08:14:32;5.40;;;3.27;;
15077;SDS011;7638;49.760;8.646;2022-08-21T08:16:58;5.67;;;3.10;;
15077;SDS011;7638;49.760;8.646;2022-08-21T08:19:24;6.50;;;3.67;;
15077;SDS011;7638;49.760;8.646;2022-08-21T08:21:50;5.93;;;2.70;;
15077;SDS011;7638;49.760;8.646;2022-08-21T08:24:16;9.90;;;3.77;;
15077;SDS011;7638;49.760;8.646;2022-08-21T08:26:42;8.03;;;3.20;;
15077;SDS011;7638;49.760;8.646;2022-08-21T08:29:08;4.90;;;3.00;;
15077;SDS011;7638;49.760;8.646;2022-08-21T08:31:34;8.93;;;3.27;;
15077;SDS011;7638;49.760;8.646;2022-08-21T08:34:00;11.60;;;4.30;;
15077;SDS011;7638;49.760;8.646;2022-08-21T08:36:33;5.23;;;3.90;;
15077;SDS011;7638;49.760;8.646;2022-08-21T08:39:02;4.67;;;3.57;;
15077;SDS011;7638;49.760;8.646;2022-08-21T08:41:29;8.43;;;3.90;;
15077;SDS011;7638;49.760;8.646;2022-08-21T08:43:57;5.70;;;4.33;;
15077;SDS011;7638;49.760;8.646;2022-08-21T08:46:29;5.73;;;4.00;;
15077;SDS011;7638;49.760;8.646;2022-08-21T08:48:57;8.67;;;4.50;;
15077;SDS011;7638;49.760;8.646;2022-08-21T08:54:39;14.17;;;4.47;;
15077;SDS011;7638;49.760;8.646;2022-08-21T08:57:09;5.90;;;4.67;;
15077;SDS011;7638;49.760;8.646;2022-08-21T08:59:38;10.23;;;6.07;;
15077;SDS011;7638;49.760;8.646;2022-08-21T09:02:04;4.90;;;3.90;;
15077;SDS011;7638;49.760;8.646;2022-08-21T09:04:31;7.80;;;5.47;;
15077;SDS011;7638;49.760;8.646;2022-08-21T09:07:42;10.83;;;5.63;;
15077;SDS011;7638;49.760;8.646;2022-08-21T09:15:12;8.97;;;5.33;;
15077;SDS011;7638;49.760;8.646;2022-08-21T09:22:41;6.30;;;4.40;;
15077;SDS011;7638;49.760;8.646;2022-08-21T09:27:36;7.43;;;4.27;;
15077;SDS011;7638;49.760;8.646;2022-08-21T09:30:04;8.23;;;4.97;;
15077;SDS011;7638;49.760;8.646;2022-08-21T09:32:31;5.83;;;3.83;;
15077;SDS011;7638;49.760;8.646;2022-08-21T09:37:31;9.80;;;3.43;;
15077;SDS011;7638;49.760;8.646;2022-08-21T09:39:59;5.77;;;3.50;;
15077;SDS011;7638;49.760;8.646;2022-08-21T09:42:31;6.83;;;3.60;;
15077;SDS011;7638;49.760;8.646;2022-08-21T09:45:17;7.50;;;3.37;;
15077;SDS011;7638;49.760;8.646;2022-08-21T09:47:43;5.57;;;3.07;;
15077;SDS011;7638;49.760;8.646;2022-08-21T09:50:12;4.27;;;3.10;;
15077;SDS011;7638;49.760;8.646;2022-08-21T09:52:42;5.70;;;2.93;;
15077;SDS011;7638;49.760;8.646;2022-08-21T09:55:13;5.40;;;2.80;;
15077;SDS011;7638;49.760;8.646;2022-08-21T09:58:00;5.63;;;3.17;;
15077;SDS011;7638;49.760;8.646;2022-08-21T10:02:54;6.23;;;2.63;;
15077;SDS011;7638;49.760;8.646;2022-08-21T10:05:25;4.67;;;2.43;;
15077;SDS011;7638;49.760;8.646;2022-08-21T10:07:53;6.60;;;2.40;;
15077;SDS011;7638;49.760;8.646;2022-08-21T10:10:20;5.90;;;2.87;;
15077;SDS011;7638;49.760;8.646;2022-08-21T10:12:49;5.67;;;2.97;;
15077;SDS011;7638;49.760;8.646;2022-08-21T10:15:35;5.27;;;2.83;;
15077;SDS011;7638;49.760;8.646;2022-08-21T10:20:37;4.60;;;2.93;;
15077;SDS011;7638;49.760;8.646;2022-08-21T10:33:53;12.50;;;3.20;;
15077;SDS011;7638;49.760;8.646;2022-08-21T10:36:33;5.23;;;2.73;;
15077;SDS011;7638;49.760;8.646;2022-08-21T10:39:07;5.50;;;2.60;;
15077;SDS011;7638;49.760;8.646;2022-08-21T10:41:51;6.43;;;2.60;;
15077;SDS011;7638;49.760;8.646;2022-08-21T10:44:37;6.07;;;2.80;;
15077;SDS011;7638;49.760;8.646;2022-08-21T10:47:09;6.47;;;2.80;;
15077;SDS011;7638;49.760;8.646;2022-08-21T10:57:19;10.63;;;3.97;;
15077;SDS011;7638;49.760;8.646;2022-08-21T10:59:49;7.67;;;2.83;;
15077;SDS011;7638;49.760;8.646;2022-08-21T11:07:35;6.30;;;3.17;;
15077;SDS011;7638;49.760;8.646;2022-08-21T11:10:00;5.80;;;2.70;;
15077;SDS011;7638;49.760;8.646;2022-08-21T11:17:22;6.63;;;2.20;;
15077;SDS011;7638;49.760;8.646;2022-08-21T11:24:43;7.30;;;2.50;;
15077;SDS011;7638;49.760;8.646;2022-08-21T11:27:27;5.13;;;3.10;;
15077;SDS011;7638;49.760;8.646;2022-08-21T11:29:55;4.93;;;2.60;;
15077;SDS011;7638;49.760;8.646;2022-08-21T11:42:54;4.30;;;2.73;;
15077;SDS011;7638;49.760;8.646;2022-08-21T11:45:35;3.43;;;2.30;;
15077;SDS011;7638;49.760;8.646;2022-08-21T11:51:00;6.83;;;2.57;;
15077;SDS011;7638;49.760;8.646;2022-08-21T11:53:34;4.03;;;2.10;;
15077;SDS011;7638;49.760;8.646;2022-08-21T11:56:10;3.60;;;2.50;;
15077;SDS011;7638;49.760;8.646;2022-08-21T11:58:39;4.17;;;2.73;;
15077;SDS011;7638;49.760;8.646;2022-08-21T12:01:09;5.97;;;2.40;;
15077;SDS011;7638;49.760;8.646;2022-08-21T12:03:42;8.70;;;2.83;;
15077;SDS011;7638;49.760;8.646;2022-08-21T12:06:11;7.93;;;2.50;;
15077;SDS011;7638;49.760;8.646;2022-08-21T12:08:39;6.07;;;3.07;;
15077;SDS011;7638;49.760;8.646;2022-08-21T12:13:55;6.07;;;2.73;;
15077;SDS011;7638;49.760;8.646;2022-08-21T12:16:32;3.73;;;2.50;;
15077;SDS011;7638;49.760;8.646;2022-08-21T12:19:09;7.07;;;3.20;;
15077;SDS011;7638;49.760;8.646;2022-08-21T12:21:50;4.27;;;2.60;;
15077;SDS011;7638;49.760;8.646;2022-08-21T12:31:47;4.33;;;2.47;;
15077;SDS011;7638;49.760;8.646;2022-08-21T12:34:14;4.93;;;2.83;;
15077;SDS011;7638;49.760;8.646;2022-08-21T12:36:44;4.47;;;2.73;;
15077;SDS011;7638;49.760;8.646;2022-08-21T12:39:13;4.17;;;2.50;;
15077;SDS011;7638;49.760;8.646;2022-08-21T12:41:50;4.07;;;2.47;;
15077;SDS011;7638;49.760;8.646;2022-08-21T12:44:20;3.80;;;2.57;;
15077;SDS011;7638;49.760;8.646;2022-08-21T12:51:50;6.10;;;2.57;;
15077;SDS011;7638;49.760;8.646;2022-08-21T12:54:25;5.77;;;2.83;;
15077;SDS011;7638;49.760;8.646;2022-08-21T12:56:56;4.80;;;2.57;;
15077;SDS011;7638;49.760;8.646;2022-08-21T12:59:22;5.70;;;2.47;;
15077;SDS011;7638;49.760;8.646;2022-08-21T13:01:49;9.17;;;2.73;;
15077;SDS011;7638;49.760;8.646;2022-08-21T13:04:17;5.03;;;2.87;;
15077;SDS011;7638;49.760;8.646;2022-08-21T13:06:45;5.77;;;3.13;;
15077;SDS011;7638;49.760;8.646;2022-08-21T13:09:14;5.07;;;2.63;;
15077;SDS011;7638;49.760;8.646;2022-08-21T13:11:41;6.80;;;2.70;;
15077;SDS011;7638;49.760;8.646;2022-08-21T13:14:14;6.47;;;2.77;;
15077;SDS011;7638;49.760;8.646;2022-08-21T13:16:40;5.90;;;3.37;;
15077;SDS011;7638;49.760;8.646;2022-08-21T13:19:06;3.23;;;2.50;;
15077;SDS011;7638;49.760;8.646;2022-08-21T13:21:40;3.73;;;2.70;;
15077;SDS011;7638;49.760;8.646;2022-08-21T13:24:17;4.67;;;2.10;;
15077;SDS011;7638;49.760;8.646;2022-08-21T13:26:44;5.23;;;2.60;;
15077;SDS011;7638;49.760;8.646;2022-08-21T13:29:11;6.33;;;2.77;;
15077;SDS011;7638;49.760;8.646;2022-08-21T13:31:38;5.33;;;2.90;;
15077;SDS011;7638;49.760;8.646;2022-08-21T13:34:07;5.43;;;2.20;;
15077;SDS011;7638;49.760;8.646;2022-08-21T13:36:36;7.03;;;3.13;;
15077;SDS011;7638;49.760;8.646;2022-08-21T13:39:03;3.33;;;2.63;;
15077;SDS011;7638;49.760;8.646;2022-08-21T13:41:32;5.57;;;2.70;;
15077;SDS011;7638;49.760;8.646;2022-08-21T13:44:03;3.10;;;1.90;;
15077;SDS011;7638;49.760;8.646;2022-08-21T13:46:31;7.63;;;2.57;;
15077;SDS011;7638;49.760;8.646;2022-08-21T13:48:58;6.83;;;2.27;;
15077;SDS011;7638;49.760;8.646;2022-08-21T13:51:24;7.30;;;3.20;;
15077;SDS011;7638;49.760;8.646;2022-08-21T13:53:51;4.13;;;2.47;;
15077;SDS011;7638;49.760;8.646;2022-08-21T13:56:25;3.53;;;2.27;;
15077;SDS011;7638;49.760;8.646;2022-08-21T13:58:51;3.10;;;1.83;;
15077;SDS011;7638;49.760;8.646;2022-08-21T14:01:23;7.90;;;2.53;;
15077;SDS011;7638;49.760;8.646;2022-08-21T14:03:50;3.80;;;2.20;;
15077;SDS011;7638;49.760;8.646;2022-08-21T14:06:18;7.60;;;2.57;;
15077;SDS011;7638;49.760;8.646;2022-08-21T14:08:49;4.37;;;2.37;;
15077;SDS011;7638;49.760;8.646;2022-08-21T14:11:16;6.87;;;2.30;;
15077;SDS011;7638;49.760;8.646;2022-08-21T14:13:49;4.53;;;2.33;;
15077;SDS011;7638;49.760;8.646;2022-08-21T14:16:20;5.90;;;2.50;;
15077;SDS011;7638;49.760;8.646;2022-08-21T14:21:34;4.90;;;2.60;;
15077;SDS011;7638;49.760;8.646;2022-08-21T14:26:48;3.50;;;1.90;;
15077;SDS011;7638;49.760;8.646;2022-08-21T14:29:15;4.40;;;2.30;;
15077;SDS011;7638;49.760;8.646;2022-08-21T14:31:41;4.83;;;2.40;;
15077;SDS011;7638;49.760;8.646;2022-08-21T14:34:08;8.73;;;2.20;;
15077;SDS011;7638;49.760;8.646;2022-08-21T14:36:35;5.07;;;2.30;;
15077;SDS011;7638;49.760;8.646;2022-08-21T14:39:01;3.23;;;2.00;;
15077;SDS011;7638;49.760;8.646;2022-08-21T14:41:27;5.93;;;2.37;;
15077;SDS011;7638;49.760;8.646;2022-08-21T14:43:54;4.70;;;2.27;;
15077;SDS011;7638;49.760;8.646;2022-08-21T14:46:25;2.40;;;1.73;;
15077;SDS011;7638;49.760;8.646;2022-08-21T14:48:52;6.70;;;2.13;;
15077;SDS011;7638;49.760;8.646;2022-08-21T14:51:18;4.23;;;2.10;;
15077;SDS011;7638;49.760;8.646;2022-08-21T14:53:44;2.47;;;2.00;;
15077;SDS011;7638;49.760;8.646;2022-08-21T14:56:10;5.67;;;2.23;;
15077;SDS011;7638;49.760;8.646;2022-08-21T14:58:39;5.77;;;2.30;;
15077;SDS011;7638;49.760;8.646;2022-08-21T15:01:09;4.88;;;2.00;;
15077;SDS011;7638;49.760;8.646;2022-08-21T15:03:36;4.25;;;2.13;;
15077;SDS011;7638;49.760;8.646;2022-08-21T15:06:02;5.95;;;2.05;;
15077;SDS011;7638;49.760;8.646;2022-08-21T15:08:28;2.65;;;1.88;;
15077;SDS011;7638;49.760;8.646;2022-08-21T15:10:55;2.83;;;2.03;;
15077;SDS011;7638;49.760;8.646;2022-08-21T15:13:21;4.57;;;2.15;;
15077;SDS011;7638;49.760;8.646;2022-08-21T15:15:48;4.70;;;2.10;;
15077;SDS011;7638;49.760;8.646;2022-08-21T15:18:15;2.50;;;1.73;;
15077;SDS011;7638;49.760;8.646;2022-08-21T15:20:40;5.05;;;2.10;;
15077;SDS011;7638;49.760;8.646;2022-08-21T15:23:07;3.85;;;2.30;;
15077;SDS011;7638;49.760;8.646;2022-08-21T15:25:34;2.58;;;1.80;;
15077;SDS011;7638;49.760;8.646;2022-08-21T15:28:00;4.88;;;2.20;;
15077;SDS011;7638;49.760;8.646;2022-08-21T15:30:36;4.35;;;2.28;;
15077;SDS011;7638;49.760;8.646;2022-08-21T15:33:02;5.68;;;2.35;;
15077;SDS011;7638;49.760;8.646;2022-08-21T15:35:28;4.00;;;2.08;;
15077;SDS011;7638;49.760;8.646;2022-08-21T15:37:54;9.75;;;2.08;;
15077;SDS011;7638;49.760;8.646;2022-08-21T15:40:21;2.75;;;1.90;;
15077;SDS011;7638;49.760;8.646;2022-08-21T15:42:47;3.33;;;2.25;;
15077;SDS011;7638;49.760;8.646;2022-08-21T15:45:13;2.35;;;1.75;;
15077;SDS011;7638;49.760;8.646;2022-08-21T15:47:42;2.60;;;1.77;;
15077;SDS011;7638;49.760;8.646;2022-08-21T15:50:09;5.45;;;2.40;;
15077;SDS011;7638;49.760;8.646;2022-08-21T15:52:36;4.30;;;2.22;;
15077;SDS011;7638;49.760;8.646;2022-08-21T15:55:02;3.08;;;2.13;;
15077;SDS011;7638;49.760;8.646;2022-08-21T15:57:28;4.00;;;1.92;;
15077;SDS011;7638;49.760;8.646;2022-08-21T15:59:59;3.58;;;1.88;;
15077;SDS011;7638;49.760;8.646;2022-08-21T16:02:33;4.32;;;1.95;;
15077;SDS011;7638;49.760;8.646;2022-08-21T16:04:59;5.22;;;2.33;;
15077;SDS011;7638;49.760;8.646;2022-08-21T16:07:25;4.38;;;2.05;;
15077;SDS011;7638;49.760;8.646;2022-08-21T16:09:51;2.00;;;1.80;;
15077;SDS011;7638;49.760;8.646;2022-08-21T16:12:27;2.92;;;1.83;;
15077;SDS011;7638;49.760;8.646;2022-08-21T16:14:58;6.43;;;1.80;;
15077;SDS011;7638;49.760;8.646;2022-08-21T16:17:29;5.50;;;2.20;;
15077;SDS011;7638;49.760;8.646;2022-08-21T16:19:56;1.88;;;1.58;;
15077;SDS011;7638;49.760;8.646;2022-08-21T16:22:22;4.95;;;2.38;;
15077;SDS011;7638;49.760;8.646;2022-08-21T16:24:48;7.17;;;1.87;;
15077;SDS011;7638;49.760;8.646;2022-08-21T16:27:14;2.67;;;1.80;;
15077;SDS011;7638;49.760;8.646;2022-08-21T16:29:42;3.70;;;1.80;;
15077;SDS011;7638;49.760;8.646;2022-08-21T16:32:08;6.23;;;2.20;;
15077;SDS011;7638;49.760;8.646;2022-08-21T16:34:35;3.70;;;2.23;;
15077;SDS011;7638;49.760;8.646;2022-08-21T16:37:01;4.43;;;2.00;;